Date,TemperatureHighF,TemperatureAvgF,TemperatureLowF,DewpointHighF,DewpointAvgF,DewpointLowF,HumidityHigh,HumidityAvg,HumidityLow,PressureMaxIn,PressureMinIn,WindSpeedMaxMPH,WindSpeedAvgMPH,GustSpeedMaxMPH,PrecipitationSumIn
2013-1-1,34,30,25,-100,-100,-100,0,0,100,0.00,40.00,0,-999,0,0.00
2013-1-2,29,24,18,-100,-100,-100,0,0,100,0.00,40.00,0,-999,0,0.00
2013-1-3,40,30,21,-100,-100,-100,0,0,100,0.00,40.00,0,-999,0,0.00
2013-1-4,43,31,24,-100,-100,-100,0,0,100,0.00,40.00,0,-999,0,0.00
2013-1-5,40,34,28,-100,-100,-100,0,0,100,0.00,40.00,0,-999,0,0.00
2013-1-6,42,35,29,-100,-100,-100,0,0,100,0.00,40.00,0,-999,0,0.00
2013-1-7,43,30,23,-100,-100,-100,0,0,100,0.00,40.00,0,-999,0,0.00
2013-1-8,51,37,27,-100,-100,-100,0,0,100,0.00,40.00,0,-999,0,0.00
2013-1-9,58,48,42,-100,-100,-100,0,0,100,0.00,40.00,0,-999,0,0.00
2013-1-10,64,54,44,-100,-100,-100,0,0,100,0.00,40.00,0,-999,0,0.00
2013-1-11,62,56,49,-100,-100,-100,0,0,100,0.00,40.00,0,-999,0,0.00
2013-1-12,62,54,41,-100,-100,-100,0,0,100,0.00,40.00,0,-999,0,0.00
2013-1-13,36,31,24,-100,-100,-100,0,0,100,0.00,40.00,0,-999,0,0.00
2013-1-14,27,23,19,-100,-100,-100,0,0,100,0.00,40.00,0,-999,0,0.00
2013-1-15,29,25,20,-100,-100,-100,0,0,100,0.00,40.00,0,-999,0,0.00
2013-1-16,35,31,28,-100,-100,-100,0,0,100,0.00,40.00,0,-999,0,0.00
2013-1-17,41,34,26,-100,-100,-100,0,0,100,0.00,40.00,0,-999,0,0.00
2013-1-18,42,34,25,-100,-100,-100,0,0,100,0.00,40.00,0,-999,0,0.00
2013-1-19,54,43,34,-100,-100,-100,0,0,100,0.00,40.00,0,-999,0,0.00
2013-1-20,44,38,29,-100,-100,-100,0,0,100,0.00,40.00,0,-999,0,0.00
2013-1-21,35,27,21,-100,-100,-100,0,0,100,0.00,40.00,0,-999,0,0.00
2013-1-22,25,21,18,-100,-100,-100,0,0,100,0.00,40.00,0,-999,0,0.00
2013-1-23,44,29,20,-100,-100,-100,0,0,100,0.00,40.00,0,-999,0,0.00
2013-1-24,35,28,21,-100,-100,-100,0,0,100,0.00,40.00,0,-999,0,0.00
2013-1-25,43,32,29,-100,-100,-100,0,0,100,0.00,40.00,0,-999,0,0.00
2013-1-26,46,34,27,-100,-100,-100,0,0,100,0.00,40.00,0,-999,0,0.00
2013-1-27,51,38,29,-100,-100,-100,0,0,100,0.00,40.00,0,-999,0,0.00
2013-1-28,64,58,51,-100,-100,-100,0,0,100,0.00,40.00,0,-999,0,0.00
2013-1-29,71,63,54,-100,-100,-100,0,0,100,0.00,40.00,0,-999,0,0.00
2013-1-30,53,45,33,-100,-100,-100,0,0,100,0.00,40.00,0,-999,0,0.00
2013-1-31,40,28,20,-100,-100,-100,0,0,100,0.00,40.00,0,-999,0,0.00
2013-2-1,26,20,11,-100,-100,-100,0,0,100,0.00,40.00,0,-999,0,0.00
2013-2-2,47,32,25,-100,-100,-100,0,0,100,0.00,40.00,0,-999,0,0.00
2013-2-3,45,37,32,-100,-100,-100,0,0,100,0.00,40.00,0,-999,0,0.00
2013-2-4,43,38,32,-100,-100,-100,0,0,100,0.00,40.00,0,-999,0,0.00
2013-2-5,54,39,29,-100,-100,-100,0,0,100,0.00,40.00,0,-999,0,0.00
2013-2-6,51,40,32,-100,-100,-100,0,0,100,0.00,40.00,0,-999,0,0.00
2013-2-7,61,50,37,-100,-100,-100,0,0,100,0.00,40.00,0,-999,0,0.00
2013-2-8,49,39,33,-100,-100,-100,0,0,100,0.00,40.00,0,-999,0,0.00
2013-2-9,43,35,31,-100,-100,-100,0,0,100,0.00,40.00,0,-999,0,0.00
2013-2-10,56,48,40,-100,-100,-100,0,0,100,0.00,40.00,0,-999,0,0.00
2013-2-11,55,45,36,-100,-100,-100,0,0,100,0.00,40.00,0,-999,0,0.00
2013-2-12,50,41,29,-100,-100,-100,0,0,100,0.00,40.00,0,-999,0,0.00
2013-2-13,47,41,36,-100,-100,-100,0,0,100,0.00,40.00,0,-999,0,0.00
2013-2-14,62,47,36,-100,-100,-100,0,0,100,0.00,40.00,0,-999,0,0.00
2013-2-15,45,40,30,-100,-100,-100,0,0,100,0.00,40.00,0,-999,0,0.00
2013-2-16,39,30,25,-100,-100,-100,0,0,100,0.00,40.00,0,-999,0,0.00
2013-2-17,49,35,27,-100,-100,-100,0,0,100,0.00,40.00,0,-999,0,0.00
2013-2-18,52,45,39,-100,-100,-100,0,0,100,0.00,40.00,0,-999,0,0.00
2013-2-19,45,36,30,-100,-100,-100,0,0,100,0.00,40.00,0,-999,0,0.00
2013-2-20,32,27,23,-100,-100,-100,0,0,100,0.00,40.00,0,-999,0,0.00
2013-2-21,33,28,25,-100,-100,-100,0,0,100,0.00,40.00,0,-999,0,0.00
2013-2-22,40,34,30,-100,-100,-100,0,0,100,0.00,40.00,0,-999,0,0.00
2013-2-23,44,33,26,-100,-100,-100,0,0,100,0.00,40.00,0,-999,0,0.00
2013-2-24,51,39,26,-100,-100,-100,0,0,100,0.00,40.00,0,-999,0,0.00
2013-2-25,54,42,34,-100,-100,-100,0,0,100,0.00,40.00,0,-999,0,0.00
2013-2-26,47,42,37,-100,-100,-100,0,0,100,0.00,40.00,0,-999,0,0.00
2013-2-27,38,36,34,-100,-100,-100,0,0,100,0.00,40.00,0,-999,0,0.00
2013-2-28,39,34,31,-100,-100,-100,0,0,100,0.00,40.00,0,-999,0,0.00
2013-3-1,36,32,30,-100,-100,-100,0,0,100,0.00,40.00,0,-999,0,0.00
2013-3-2,32,30,29,-100,-100,-100,0,0,100,0.00,40.00,0,-999,0,0.00
2013-3-3,42,32,23,-100,-100,-100,0,0,100,0.00,40.00,0,-999,0,0.00
2013-3-4,53,43,34,-100,-100,-100,0,0,100,0.00,40.00,0,-999,0,0.00
2013-3-5,47,39,33,-100,-100,-100,0,0,100,0.00,40.00,0,-999,0,0.00
2013-3-6,44,35,31,-100,-100,-100,0,0,100,0.00,40.00,0,-999,0,0.00
2013-3-7,49,37,28,-100,-100,-100,0,0,100,0.00,40.00,0,-999,0,0.00
2013-3-8,53,38,29,-100,-100,-100,0,0,100,0.00,40.00,0,-999,0,0.00
2013-3-9,69,53,42,-100,-100,-100,0,0,100,0.00,40.00,0,-999,0,0.00
2013-3-10,62,55,48,-100,-100,-100,0,0,100,0.00,40.00,0,-999,0,0.00
2013-3-11,49,41,35,-100,-100,-100,0,0,100,0.00,40.00,0,-999,0,0.00
2013-3-12,54,39,29,-100,-100,-100,0,0,100,0.00,40.00,0,-999,0,0.00
2013-3-13,46,36,31,-100,-100,-100,0,0,100,0.00,40.00,0,-999,0,0.00
2013-3-14,51,35,27,-100,-100,-100,0,0,100,0.00,40.00,0,-999,0,0.00
2013-3-15,74,51,32,-100,-100,-100,0,0,100,0.00,40.00,0,-999,0,0.00
2013-3-16,68,58,43,-100,-100,-100,0,0,100,0.00,40.00,0,-999,0,0.00
2013-3-17,43,40,36,-100,-100,-100,0,0,100,0.00,40.00,0,-999,0,0.00
2013-3-18,53,44,39,-100,-100,-100,0,0,100,0.00,40.00,0,-999,0,0.00
2013-3-19,54,42,32,-100,-100,-100,0,0,100,0.00,40.00,0,-999,0,0.00
2013-3-20,47,37,29,-100,-100,-100,0,0,100,0.00,40.00,0,-999,0,0.00
2013-3-21,40,31,25,-100,-100,-100,0,0,100,0.00,40.00,0,-999,0,0.00
2013-3-22,41,36,31,-100,-100,-100,0,0,100,0.00,40.00,0,-999,0,0.00
2013-3-23,54,45,39,-100,-100,-100,0,0,100,0.00,40.00,0,-999,0,0.00
2013-3-24,43,38,32,-100,-100,-100,0,0,100,0.00,40.00,0,-999,0,0.00
2013-3-25,37,34,31,-100,-100,-100,0,0,100,0.00,40.00,0,-999,0,0.00
2013-3-26,48,37,29,-100,-100,-100,0,0,100,0.00,40.00,0,-999,0,0.00
2013-3-27,53,40,26,-100,-100,-100,0,0,100,0.00,40.00,0,-999,0,0.00
2013-3-28,59,47,40,-100,-100,-100,0,0,100,0.00,40.00,0,-999,0,0.00
2013-3-29,60,51,45,-100,-100,-100,0,0,100,0.00,40.00,0,-999,0,0.00
2013-3-30,53,48,40,-100,-100,-100,0,0,100,0.00,40.00,0,-999,0,0.00
2013-3-31,66,56,50,-100,-100,-100,0,0,100,0.00,40.00,0,-999,0,0.00
2013-4-1,55,49,41,-100,-100,-100,0,0,100,0.00,40.00,0,-999,0,0.00
2013-4-2,47,42,36,-100,-100,-100,0,0,100,0.00,40.00,0,-999,0,0.00
2013-4-3,54,43,32,-100,-100,-100,0,0,100,0.00,40.00,0,-999,0,0.00
2013-4-4,60,48,38,-100,-100,-100,0,0,100,0.00,40.00,0,-999,0,0.00
2013-4-5,73,54,34,-100,-100,-100,0,0,100,0.00,40.00,0,-999,0,0.00
2013-4-6,73,59,46,-100,-100,-100,0,0,100,0.00,40.00,0,-999,0,0.00
2013-4-7,76,67,62,-100,-100,-100,0,0,100,0.00,40.00,0,-999,0,0.00
2013-4-8,76,66,62,-100,-100,-100,0,0,100,0.00,40.00,0,-999,0,0.00
2013-4-9,83,71,62,-100,-100,-100,0,0,100,0.00,40.00,0,-999,0,0.00
2013-4-10,86,76,65,-100,-100,-100,0,0,100,0.00,40.00,0,-999,0,0.00
2013-4-11,66,55,47,-100,-100,-100,0,0,100,0.00,40.00,0,-999,0,0.00
2013-4-12,61,48,40,-100,-100,-100,0,0,100,0.00,40.00,0,-999,0,0.00
2013-4-13,64,48,36,-100,-100,-100,0,0,100,0.00,40.00,0,-999,0,0.00
2013-4-14,77,62,49,-100,-100,-100,0,0,100,0.00,40.00,0,-999,0,0.00
2013-4-15,81,71,60,-100,-100,-100,0,0,100,0.00,40.00,0,-999,0,0.00
2013-4-16,72,64,55,-100,-100,-100,0,0,100,0.00,40.00,0,-999,0,0.00
2013-4-17,84,70,54,-100,-100,-100,0,0,100,0.00,40.00,0,-999,0,0.00
2013-4-18,78,70,45,-100,-100,-100,0,0,100,0.00,40.00,0,-999,0,0.00
2013-4-19,54,46,41,-100,-100,-100,0,0,100,0.00,40.00,0,-999,0,0.00
2013-4-20,62,50,36,-100,-100,-100,0,0,100,0.00,40.00,0,-999,0,0.00
2013-4-21,66,54,42,-100,-100,-100,0,0,100,0.00,40.00,0,-999,0,0.00
2013-4-22,74,55,43,-100,-100,-100,0,0,100,0.00,40.00,0,-999,0,0.00
2013-4-23,73,64,47,-100,-100,-100,0,0,100,0.00,40.00,0,-999,0,0.00
2013-4-24,56,46,40,-100,-100,-100,0,0,100,0.00,40.00,0,-999,0,0.00
2013-4-25,68,52,37,-100,-100,-100,0,0,100,0.00,40.00,0,-999,0,0.00
2013-4-26,54,52,51,-100,-100,-100,0,0,100,0.00,40.00,0,-999,0,0.00
2013-4-27,58,54,50,-100,-100,-100,0,0,100,0.00,40.00,0,-999,0,0.00
2013-4-28,65,58,54,-100,-100,-100,0,0,100,0.00,40.00,0,-999,0,0.00
2013-4-29,75,60,49,-100,-100,-100,0,0,100,0.00,40.00,0,-999,0,0.00
2013-4-30,83,71,58,-100,-100,-100,0,0,100,0.00,40.00,0,-999,0,0.00
2013-5-1,85,71,59,-100,-100,-100,0,0,100,0.00,40.00,0,-999,0,0.00
2013-5-2,76,68,57,-100,-100,-100,0,0,100,0.00,40.00,0,-999,0,0.00
2013-5-3,54,46,41,-100,-100,-100,0,0,100,0.00,40.00,0,-999,0,0.00
2013-5-4,52,45,39,-100,-100,-100,0,0,100,0.00,40.00,0,-999,0,0.00
2013-5-5,57,48,41,-100,-100,-100,0,0,100,0.00,40.00,0,-999,0,0.00
2013-5-6,67,61,53,-100,-100,-100,0,0,100,0.00,40.00,0,-999,0,0.00
2013-5-7,77,65,54,-100,-100,-100,0,0,100,0.00,40.00,0,-999,0,0.00
2013-5-8,83,68,57,-100,-100,-100,0,0,100,0.00,40.00,0,-999,0,0.00
2013-5-9,82,72,65,-100,-100,-100,0,0,100,0.00,40.00,0,-999,0,0.00
2013-5-10,77,69,62,-100,-100,-100,0,0,100,0.00,40.00,0,-999,0,0.00
2013-5-11,74,63,57,-100,-100,-100,0,0,100,0.00,40.00,0,-999,0,0.00
2013-5-12,67,57,44,-100,-100,-100,0,0,100,0.00,40.00,0,-999,0,0.00
2013-5-13,72,57,43,-100,-100,-100,0,0,100,0.00,40.00,0,-999,0,0.00
2013-5-14,89,74,58,-100,-100,-100,0,0,100,0.00,40.00,0,-999,0,0.00
2013-5-15,86,77,68,-100,-100,-100,0,0,100,0.00,40.00,0,-999,0,0.00
2013-5-16,80,74,69,-100,-100,-100,0,0,100,0.00,40.00,0,-999,0,0.00
2013-5-17,75,69,65,-100,-100,-100,0,0,100,0.00,40.00,0,-999,0,0.00
2013-5-18,84,73,63,-100,-100,-100,0,0,100,0.00,40.00,0,-999,0,0.00
2013-5-19,91,81,73,-100,-100,-100,0,0,100,0.00,40.00,0,-999,0,0.00
2013-5-20,89,80,73,-100,-100,-100,0,0,100,0.00,40.00,0,-999,0,0.00
2013-5-21,81,70,66,-100,-100,-100,0,0,100,0.00,40.00,0,-999,0,0.00
2013-5-22,78,71,65,-100,-100,-100,0,0,100,0.00,40.00,0,-999,0,0.00
2013-5-23,75,68,60,-100,-100,-100,0,0,100,0.00,40.00,0,-999,0,0.00
2013-5-24,74,61,49,-100,-100,-100,0,0,100,0.00,40.00,0,-999,0,0.00
2013-5-25,79,61,53,-100,-100,-100,0,0,100,0.00,40.00,0,-999,0,0.00
2013-5-26,85,74,60,-100,-100,-100,0,0,100,0.00,40.00,0,-999,0,0.00
2013-5-27,87,81,70,-100,-100,-100,0,0,100,0.00,40.00,0,-999,0,0.00
2013-5-28,90,80,72,-100,-100,-100,0,0,100,0.00,40.00,0,-999,0,0.00
2013-5-29,91,80,68,-100,-100,-100,0,0,100,0.00,40.00,0,-999,0,0.00
2013-5-30,87,80,76,-100,-100,-100,0,0,100,0.00,40.00,0,-999,0,0.00
2013-5-31,83,76,69,-100,-100,-100,0,0,100,0.00,40.00,0,-999,0,0.00
2013-6-1,80,70,66,-100,-100,-100,0,0,100,0.00,40.00,0,-999,0,0.00
2013-6-2,76,70,63,-100,-100,-100,0,0,100,0.00,40.00,0,-999,0,0.00
2013-6-3,75,63,59,-100,-100,-100,0,0,100,0.00,40.00,0,-999,0,0.00
2013-6-4,82,70,58,-100,-100,-100,0,0,100,0.00,40.00,0,-999,0,0.00
2013-6-5,86,75,65,-100,-100,-100,0,0,100,0.00,40.00,0,-999,0,0.00
2013-6-6,83,75,68,-100,-100,-100,0,0,100,0.00,40.00,0,-999,0,0.00
2013-6-7,79,71,65,-100,-100,-100,0,0,100,0.00,40.00,0,-999,0,0.00
2013-6-8,83,71,60,-100,-100,-100,0,0,100,0.00,40.00,0,-999,0,0.00
2013-6-9,81,72,67,-100,-100,-100,0,0,100,0.00,40.00,0,-999,0,0.00
2013-6-10,86,76,66,-100,-100,-100,0,0,100,0.00,40.00,0,-999,0,0.00
2013-6-11,94,81,67,-100,-100,-100,0,0,100,0.00,40.00,0,-999,0,0.00
2013-6-12,94,86,77,-100,-100,-100,0,0,100,0.00,40.00,0,-999,0,0.00
2013-6-13,86,80,73,-100,-100,-100,0,0,100,0.00,40.00,0,-999,0,0.00
2013-6-14,86,76,64,-100,-100,-100,0,0,100,0.00,40.00,0,-999,0,0.00
2013-6-15,91,77,66,-100,-100,-100,0,0,100,0.00,40.00,0,-999,0,0.00
2013-6-16,89,81,73,-100,-100,-100,0,0,100,0.00,40.00,0,-999,0,0.00
2013-6-17,89,76,68,-100,-100,-100,0,0,100,0.00,40.00,0,-999,0,0.00
2013-6-18,90,75,64,-100,-100,-100,0,0,100,0.00,40.00,0,-999,0,0.00
2013-6-19,90,80,71,-100,-100,-100,0,0,100,0.00,40.00,0,-999,0,0.00
2013-6-20,94,82,71,-100,-100,-100,0,0,100,0.00,40.00,0,-999,0,0.00
2013-6-22,94,84,69,-100,-100,-100,0,0,100,0.00,40.00,0,-999,0,0.00
2013-6-23,92,79,70,-100,-100,-100,0,0,100,0.00,40.00,0,-999,0,0.00
2013-6-24,94,83,72,-100,-100,-100,0,0,100,0.00,40.00,0,-999,0,0.00
2013-6-25,92,85,78,-100,-100,-100,0,0,100,0.00,40.00,0,-999,0,0.00
2013-6-26,91,84,76,-100,-100,-100,0,0,100,0.00,40.00,0,-999,0,0.00
2013-6-27,95,84,77,-100,-100,-100,0,0,100,0.00,40.00,0,-999,0,0.00
2013-6-28,91,82,75,-100,-100,-100,0,0,100,0.00,40.00,0,-999,0,0.00
2013-6-29,86,75,67,-100,-100,-100,0,0,100,0.00,40.00,0,-999,0,0.00
2013-6-30,80,70,64,-100,-100,-100,0,0,100,0.00,40.00,0,-999,0,0.00
2013-7-1,76,70,66,-100,-100,-100,0,0,100,0.00,40.00,0,-999,0,0.00
2013-7-2,71,67,65,-100,-100,-100,0,0,100,0.00,40.00,0,-999,0,0.00
2013-7-3,85,73,65,-100,-100,-100,0,0,100,0.00,40.00,0,-999,0,0.00
2013-7-4,88,74,62,-100,-100,-100,0,0,100,0.00,40.00,0,-999,0,0.00
2013-7-5,87,77,66,-100,-100,-100,0,0,100,0.00,40.00,0,-999,0,0.00
2013-7-6,87,76,70,-100,-100,-100,0,0,100,0.00,40.00,0,-999,0,0.00
2013-7-7,91,79,65,-100,-100,-100,0,0,100,0.00,40.00,0,-999,0,0.00
2013-7-8,93,80,72,-100,-100,-100,0,0,100,0.00,40.00,0,-999,0,0.00
2013-7-9,94,86,75,-100,-100,-100,0,0,100,0.00,40.00,0,-999,0,0.00
2013-7-10,91,85,80,-100,-100,-100,0,0,100,0.00,40.00,0,-999,0,0.00
2013-7-11,88,80,71,-100,-100,-100,0,0,100,0.00,40.00,0,-999,0,0.00
2013-7-12,88,76,63,-100,-100,-100,0,0,100,0.00,40.00,0,-999,0,0.00
2013-7-13,88,74,64,-100,-100,-100,0,0,100,0.00,40.00,0,-999,0,0.00
2013-7-14,91,76,66,-100,-100,-100,0,0,100,0.00,40.00,0,-999,0,0.00
2013-7-15,94,80,73,-100,-100,-100,0,0,100,0.00,40.00,0,-999,0,0.00
2013-7-16,94,84,73,-100,-100,-100,0,0,100,0.00,40.00,0,-999,0,0.00
2013-7-17,98,86,74,-100,-100,-100,0,0,100,0.00,40.00,0,-999,0,0.00
2013-7-18,99,85,76,-100,-100,-100,0,0,100,0.00,40.00,0,-999,0,0.00
2013-7-19,93,84,73,-100,-100,-100,0,0,100,0.00,40.00,0,-999,0,0.00
2013-7-20,94,81,75,-100,-100,-100,0,0,100,0.00,40.00,0,-999,0,0.00
2013-7-21,89,79,73,-100,-100,-100,0,0,100,0.00,40.00,0,-999,0,0.00
2013-7-22,91,82,73,-100,-100,-100,0,0,100,0.00,40.00,0,-999,0,0.00
2013-7-23,91,80,74,-100,-100,-100,0,0,100,0.00,40.00,0,-999,0,0.00
2013-7-24,83,76,67,-100,-100,-100,0,0,100,0.00,40.00,0,-999,0,0.00
2013-7-25,84,73,60,-100,-100,-100,0,0,100,0.00,40.00,0,-999,0,0.00
2013-7-26,81,72,63,-100,-100,-100,0,0,100,0.00,40.00,0,-999,0,0.00
2013-7-27,83,75,67,-100,-100,-100,0,0,100,0.00,40.00,0,-999,0,0.00
2013-7-28,79,68,57,-100,-100,-100,0,0,100,0.00,40.00,0,-999,0,0.00
2013-7-29,80,71,62,-100,-100,-100,0,0,100,0.00,40.00,0,-999,0,0.00
2013-7-30,76,73,69,-100,-100,-100,0,0,100,0.00,40.00,0,-999,0,0.00
2013-7-31,89,80,73,-100,-100,-100,0,0,100,0.00,40.00,0,-999,0,0.00
2013-8-1,89,79,69,-100,-100,-100,0,0,100,0.00,40.00,0,-999,0,0.00
2013-8-2,87,76,65,-100,-100,-100,0,0,100,0.00,40.00,0,-999,0,0.00
2013-8-3,87,78,73,-100,-100,-100,0,0,100,0.00,40.00,0,-999,0,0.00
2013-8-4,86,77,70,-100,-100,-100,0,0,100,0.00,40.00,0,-999,0,0.00
2013-8-5,76,73,69,-100,-100,-100,0,0,100,0.00,40.00,0,-999,0,0.00
2013-8-6,84,78,73,-100,-100,-100,0,0,100,0.00,40.00,0,-999,0,0.00
2013-8-7,85,79,73,-100,-100,-100,0,0,100,0.00,40.00,0,-999,0,0.00
2013-8-8,87,80,73,-100,-100,-100,0,0,100,0.00,40.00,0,-999,0,0.00
2013-8-9,83,79,76,-100,-100,-100,0,0,100,0.00,40.00,0,-999,0,0.00
2013-8-10,86,80,73,-100,-100,-100,0,0,100,0.00,40.00,0,-999,0,0.00
2013-8-11,90,80,71,-100,-100,-100,0,0,100,0.00,40.00,0,-999,0,0.00
2013-8-12,87,80,76,-100,-100,-100,0,0,100,0.00,40.00,0,-999,0,0.00
2013-8-13,83,78,69,-100,-100,-100,0,0,100,0.00,40.00,0,-999,0,0.00
2013-8-14,78,69,62,-100,-100,-100,0,0,100,0.00,40.00,0,-999,0,0.00
2013-8-15,80,69,57,-100,-100,-100,0,0,100,0.00,40.00,0,-999,0,0.00
2013-8-16,80,69,58,-100,-100,-100,0,0,100,0.00,40.00,0,-999,0,0.00
2013-8-17,83,73,65,-100,-100,-100,0,0,100,0.00,40.00,0,-999,0,0.00
2013-8-18,84,73,64,-100,-100,-100,0,0,100,0.00,40.00,0,-999,0,0.00
2013-8-19,88,77,65,-100,-100,-100,0,0,100,0.00,40.00,0,-999,0,0.00
2013-8-20,92,78,66,-100,-100,-100,0,0,100,0.00,40.00,0,-999,0,0.00
2013-8-21,92,80,67,-100,-100,-100,0,0,100,0.00,40.00,0,-999,0,0.00
2013-8-22,96,80,69,-100,-100,-100,0,0,100,0.00,40.00,0,-999,0,0.00
2013-8-23,94,82,71,-100,-100,-100,0,0,100,0.00,40.00,0,-999,0,0.00
2013-8-24,94,80,69,-100,-100,-100,0,0,100,0.00,40.00,0,-999,0,0.00
2013-8-25,93,79,69,-100,-100,-100,0,0,100,0.00,40.00,0,-999,0,0.00
2013-8-26,90,77,72,-100,-100,-100,0,0,100,0.00,40.00,0,-999,0,0.00
2013-8-27,90,78,71,-100,-100,-100,0,0,100,0.00,40.00,0,-999,0,0.00
2013-8-28,94,89,79,-100,-100,-100,0,0,100,0.00,40.00,0,-999,0,0.00
2013-8-29,98,83,73,-100,-100,-100,0,0,100,0.00,40.00,0,-999,0,0.00
2013-8-30,98,83,73,-100,-100,-100,0,0,100,0.00,40.00,0,-999,0,0.00
2013-8-31,98,86,76,-100,-100,-100,0,0,100,0.00,40.00,0,-999,0,0.00
2013-9-1,86,81,77,-100,-100,-100,0,0,100,0.00,40.00,0,-999,0,0.00
2013-9-2,91,79,72,-100,-100,-100,0,0,100,0.00,40.00,0,-999,0,0.00
2013-9-3,87,76,65,-100,-100,-100,0,0,100,0.00,40.00,0,-999,0,0.00
2013-9-4,87,73,60,-100,-100,-100,0,0,100,0.00,40.00,0,-999,0,0.00
2013-9-5,88,74,58,-100,-100,-100,0,0,100,0.00,40.00,0,-999,0,0.00
2013-9-6,91,79,63,-100,-100,-100,0,0,100,0.00,40.00,0,-999,0,0.00
2013-9-7,92,78,63,-100,-100,-100,0,0,100,0.00,40.00,0,-999,0,0.00
2013-9-8,91,80,69,-100,-100,-100,0,0,100,0.00,40.00,0,-999,0,0.00
2013-9-9,98,86,74,-100,-100,-100,0,0,100,0.00,40.00,0,-999,0,0.00
2013-9-10,99,86,75,-100,-100,-100,0,0,100,0.00,40.00,0,-999,0,0.00
2013-9-11,97,81,73,-100,-100,-100,0,0,100,0.00,40.00,0,-999,0,0.00
2013-9-12,91,80,71,-100,-100,-100,0,0,100,0.00,40.00,0,-999,0,0.00
2013-9-13,80,71,60,-100,-100,-100,0,0,100,0.00,40.00,0,-999,0,0.00
2013-9-14,79,65,51,-100,-100,-100,0,0,100,0.00,40.00,0,-999,0,0.00
2013-9-15,84,63,49,-100,-100,-100,0,0,100,0.00,40.00,0,-999,0,0.00
2013-9-16,73,67,64,-100,-100,-100,0,0,100,0.00,40.00,0,-999,0,0.00
2013-9-17,87,73,64,-100,-100,-100,0,0,100,0.00,40.00,0,-999,0,0.00
2013-9-18,76,70,69,-100,-100,-100,0,0,100,0.00,40.00,0,-999,0,0.00
2013-9-19,91,80,74,-100,-100,-100,0,0,100,0.00,40.00,0,-999,0,0.00
2013-9-20,79,74,69,-100,-100,-100,0,0,100,0.00,40.00,0,-999,0,0.00
2013-9-21,77,66,58,-100,-100,-100,0,0,100,0.00,40.00,0,-999,0,0.00
2013-9-22,80,64,51,-100,-100,-100,0,0,100,0.00,40.00,0,-999,0,0.00
2013-9-23,83,62,51,-100,-100,-100,0,0,100,0.00,40.00,0,-999,0,0.00
2013-9-24,79,66,57,-100,-100,-100,0,0,100,0.00,40.00,0,-999,0,0.00
2013-9-25,83,71,65,-100,-100,-100,0,0,100,0.00,40.00,0,-999,0,0.00
2013-9-26,87,71,61,-100,-100,-100,0,0,100,0.00,40.00,0,-999,0,0.00
2013-9-27,87,71,59,-100,-100,-100,0,0,100,0.00,40.00,0,-999,0,0.00
2013-9-28,87,74,65,-100,-100,-100,0,0,100,0.00,40.00,0,-999,0,0.00
2013-9-29,73,68,64,-100,-100,-100,0,0,100,0.00,40.00,0,-999,0,0.00
2013-9-30,73,69,66,-100,-100,-100,0,0,100,0.00,40.00,0,-999,0,0.00
2013-10-1,73,71,69,-100,-100,-100,0,0,100,0.00,40.00,0,-999,0,0.00
2013-10-2,78,72,67,-100,-100,-100,0,0,100,0.00,40.00,0,-999,0,0.00
2013-10-3,84,76,67,-100,-100,-100,0,0,100,0.00,40.00,0,-999,0,0.00
2013-10-4,85,77,71,-100,-100,-100,0,0,100,0.00,40.00,0,-999,0,0.00
2013-10-5,82,75,70,-100,-100,-100,0,0,100,0.00,40.00,0,-999,0,0.00
2013-10-6,71,59,51,-100,-100,-100,0,0,100,0.00,40.00,0,-999,0,0.00
2013-10-7,69,56,47,-100,-100,-100,0,0,100,0.00,40.00,0,-999,0,0.00
2013-10-8,75,59,46,-100,-100,-100,0,0,100,0.00,40.00,0,-999,0,0.00
2013-10-9,80,64,48,-100,-100,-100,0,0,100,0.00,40.00,0,-999,0,0.00
2013-10-10,80,68,58,-100,-100,-100,0,0,100,0.00,40.00,0,-999,0,0.00
2013-10-11,82,69,55,-100,-100,-100,0,0,100,0.00,40.00,0,-999,0,0.00
2013-10-12,73,66,60,-100,-100,-100,0,0,100,0.00,40.00,0,-999,0,0.00
2013-10-13,76,64,53,-100,-100,-100,0,0,100,0.00,40.00,0,-999,0,0.00
2013-10-14,73,59,51,-100,-100,-100,0,0,100,0.00,40.00,0,-999,0,0.00
2013-10-15,70,67,65,-100,-100,-100,0,0,100,0.00,40.00,0,-999,0,0.00
2013-10-16,68,60,54,-100,-100,-100,0,0,100,0.00,40.00,0,-999,0,0.00
2013-10-17,65,55,51,-100,-100,-100,0,0,100,0.00,40.00,0,-999,0,0.00
2013-10-18,69,55,42,-100,-100,-100,0,0,100,0.00,40.00,0,-999,0,0.00
2013-10-19,59,52,44,-100,-100,-100,0,0,100,0.00,40.00,0,-999,0,0.00
2013-10-20,66,54,41,-100,-100,-100,0,0,100,0.00,40.00,0,-999,0,0.00
2013-10-21,66,54,43,-100,-100,-100,0,0,100,0.00,40.00,0,-999,0,0.00
2013-10-22,61,49,36,-100,-100,-100,0,0,100,0.00,40.00,0,-999,0,0.00
2013-10-23,56,49,42,-100,-100,-100,0,0,100,0.00,40.00,0,-999,0,0.00
2013-10-24,52,45,36,-100,-100,-100,0,0,100,0.00,40.00,0,-999,0,0.00
2013-10-25,54,43,29,-100,-100,-100,0,0,100,0.00,40.00,0,-999,0,0.00
2013-10-26,61,50,36,-100,-100,-100,0,0,100,0.00,40.00,0,-999,0,0.00
2013-10-27,65,51,38,-100,-100,-100,0,0,100,0.00,40.00,0,-999,0,0.00
2013-10-28,71,53,39,-100,-100,-100,0,0,100,0.00,40.00,0,-999,0,0.00
2013-10-29,62,55,47,-100,-100,-100,0,0,100,0.00,40.00,0,-999,0,0.00
2013-10-30,76,68,61,-100,-100,-100,0,0,100,0.00,40.00,0,-999,0,0.00
2013-10-31,70,67,57,-100,-100,-100,0,0,100,0.00,40.00,0,-999,0,0.00
2013-11-1,68,59,51,-100,-100,-100,0,0,100,0.00,40.00,0,-999,0,0.00
2013-11-2,56,50,43,-100,-100,-100,0,0,100,0.00,40.00,0,-999,0,0.00
2013-11-3,60,48,36,-100,-100,-100,0,0,100,0.00,40.00,0,-999,0,0.00
2013-11-4,59,52,45,-100,-100,-100,0,0,100,0.00,40.00,0,-999,0,0.00
2013-11-5,64,58,51,-100,-100,-100,0,0,100,0.00,40.00,0,-999,0,0.00
2013-11-6,61,54,42,-100,-100,-100,0,0,100,0.00,40.00,0,-999,0,0.00
2013-11-7,56,46,36,-100,-100,-100,0,0,100,0.00,40.00,0,-999,0,0.00
2013-11-8,59,46,35,-100,-100,-100,0,0,100,0.00,40.00,0,-999,0,0.00
2013-11-9,63,51,43,-100,-100,-100,0,0,100,0.00,40.00,0,-999,0,0.00
2013-11-10,62,49,40,-100,-100,-100,0,0,100,0.00,40.00,0,-999,0,0.00
2013-11-11,61,43,36,-100,-100,-100,0,0,100,0.00,40.00,0,-999,0,0.00
2013-11-12,43,33,26,-100,-100,-100,0,0,100,0.00,40.00,0,-999,0,0.00
2013-11-13,42,35,24,-100,-100,-100,0,0,100,0.00,40.00,0,-999,0,0.00
2013-11-14,52,40,27,-100,-100,-100,0,0,100,0.00,40.00,0,-999,0,0.00
2013-11-15,51,46,36,-100,-100,-100,0,0,100,0.00,40.00,0,-999,0,0.00
2013-11-16,66,59,51,-100,-100,-100,0,0,100,0.00,40.00,0,-999,0,0.00
2013-11-17,77,66,56,-100,-100,-100,0,0,100,0.00,40.00,0,-999,0,0.00
2013-11-18,56,49,43,-100,-100,-100,0,0,100,0.00,40.00,0,-999,0,0.00
2013-11-21,57,55,53,-100,-100,-100,0,0,100,0.00,40.00,0,-999,0,0.00
2013-11-22,55,44,39,-100,-100,-100,0,0,100,0.00,40.00,0,-999,0,0.00
2013-11-23,42,35,23,-100,-100,-100,0,0,100,0.00,40.00,0,-999,0,0.00
2013-11-24,31,25,18,-100,-100,-100,0,0,100,0.00,40.00,0,-999,0,0.00
2013-11-25,33,31,29,-100,-100,-100,0,0,100,0.00,40.00,0,-999,0,0.00
2013-11-26,43,36,27,-100,-100,-100,0,0,100,0.00,40.00,0,-999,0,0.00
2013-11-27,32,26,21,-100,-100,-100,0,0,100,0.00,40.00,0,-999,0,0.00
2013-11-28,43,32,21,-100,-100,-100,0,0,100,0.00,40.00,0,-999,0,0.00
2013-11-29,49,35,26,-100,-100,-100,0,0,100,0.00,40.00,0,-999,0,0.00
2013-11-30,54,43,32,-100,-100,-100,0,0,100,0.00,40.00,0,-999,0,0.00